createdAt,value
2023-03-13T00:03:07.158Z,3.65
2023-03-13T00:08:08.555Z,3.20
2023-03-13T00:13:10.157Z,3.30
2023-03-13T00:18:11.725Z,1.88
2023-03-13T00:23:13.231Z,2.90
2023-03-13T00:28:14.583Z,1.85
2023-03-13T00:33:15.930Z,1.77
2023-03-13T00:38:17.261Z,2.28
2023-03-13T00:43:18.586Z,1.83
2023-03-13T00:48:19.974Z,2.15
2023-03-13T00:53:21.556Z,1.77
2023-03-13T00:58:24.160Z,1.30
2023-03-13T01:03:25.814Z,2.42
2023-03-13T01:08:28.765Z,1.85
2023-03-13T01:13:32.989Z,1.73
2023-03-13T01:18:35.722Z,2.00
2023-03-13T01:23:37.370Z,1.10
2023-03-13T01:28:39.497Z,0.93
2023-03-13T01:33:41.535Z,1.13
2023-03-13T01:38:43.254Z,1.90
2023-03-13T01:43:46.021Z,1.65
2023-03-13T01:49:05.932Z,1.80
2023-03-13T01:54:11.627Z,1.50
2023-03-13T01:59:16.964Z,1.98
2023-03-13T02:04:22.048Z,1.00
2023-03-13T02:09:27.047Z,1.88
2023-03-13T02:14:33.461Z,1.95
2023-03-13T02:19:40.634Z,1.30
2023-03-13T02:24:56.583Z,2.13
2023-03-13T02:29:59.320Z,1.88
2023-03-13T02:35:08.069Z,2.40
2023-03-13T02:40:12.661Z,2.40
2023-03-13T02:45:16.113Z,1.98
2023-03-13T02:50:17.892Z,1.75
2023-03-13T02:55:27.225Z,2.00
2023-03-13T03:00:28.656Z,1.30
2023-03-13T03:05:30.041Z,1.67
2023-03-13T03:10:31.387Z,1.65
2023-03-13T03:15:32.774Z,1.02
2023-03-13T03:20:34.118Z,2.97
2023-03-13T03:25:35.462Z,1.90
2023-03-13T03:30:36.838Z,0.90
2023-03-13T03:35:38.522Z,1.42
2023-03-13T03:40:40.063Z,1.42
2023-03-13T03:45:41.415Z,1.30
2023-03-13T03:50:43.453Z,2.30
2023-03-13T03:55:45.108Z,1.52
2023-03-13T04:00:48.150Z,1.27
2023-03-13T04:05:49.617Z,1.23
2023-03-13T04:10:51.376Z,2.30
2023-03-13T04:15:52.845Z,1.95
2023-03-13T04:21:05.545Z,2.00
2023-03-13T04:26:06.934Z,2.00
2023-03-13T04:31:08.568Z,11.45
2023-03-13T04:36:10.143Z,2.50
2023-03-13T04:41:11.520Z,2.90
2023-03-13T04:46:12.956Z,0.93
2023-03-13T04:51:14.408Z,1.42
2023-03-13T04:56:41.176Z,1.00
2023-03-13T05:06:45.275Z,1.45
2023-03-13T05:11:46.627Z,1.65
2023-03-13T05:16:48.021Z,1.00
2023-03-13T05:21:49.438Z,1.60
2023-03-13T05:26:50.821Z,1.15
2023-03-13T05:31:54.676Z,1.40
2023-03-13T05:36:56.114Z,1.20
2023-03-13T05:41:57.595Z,1.75
2023-03-13T05:46:59.011Z,1.42
2023-03-13T05:52:00.440Z,1.20
2023-03-13T05:57:01.894Z,1.23
2023-03-13T06:02:03.537Z,2.03
2023-03-13T06:07:05.399Z,1.13
2023-03-13T06:12:08.749Z,1.65
2023-03-13T06:17:10.421Z,1.60
2023-03-13T06:22:12.055Z,1.13
2023-03-13T06:27:14.498Z,0.98
2023-03-13T06:32:16.322Z,1.10
2023-03-13T06:37:18.155Z,1.27
2023-03-13T06:42:19.792Z,1.00
2023-03-13T06:47:21.480Z,1.13
2023-03-13T06:52:28.746Z,2.25
2023-03-13T06:57:38.927Z,1.30
2023-03-13T07:02:40.415Z,0.90
2023-03-13T07:07:42.556Z,0.88
2023-03-13T07:12:44.463Z,1.25
2023-03-13T07:17:45.862Z,1.08
2023-03-13T07:22:51.837Z,1.20
2023-03-13T07:27:53.415Z,0.80
2023-03-13T07:32:54.874Z,1.17
2023-03-13T07:37:56.301Z,1.30
2023-03-13T07:42:57.642Z,0.90
2023-03-13T07:47:58.964Z,0.70
2023-03-13T07:53:00.447Z,0.93
2023-03-13T07:58:01.818Z,0.85
2023-03-13T08:03:04.884Z,0.90
2023-03-13T08:08:06.681Z,1.00
2023-03-13T08:13:08.034Z,0.90
2023-03-13T08:18:09.413Z,0.70
2023-03-13T08:23:10.781Z,0.80
2023-03-13T08:28:12.436Z,0.60
2023-03-13T08:33:13.820Z,0.88
2023-03-13T08:38:15.209Z,1.13
2023-03-13T08:43:16.655Z,0.80
2023-03-13T08:48:17.987Z,1.00
2023-03-13T08:53:19.356Z,0.90
2023-03-13T08:58:20.762Z,1.00
2023-03-13T09:03:22.295Z,1.00
2023-03-13T09:08:23.895Z,1.15
2023-03-13T09:13:27.092Z,1.10
2023-03-13T09:18:29.320Z,0.90
2023-03-13T09:23:30.773Z,1.25
2023-03-13T09:28:33.275Z,1.02
2023-03-13T09:33:34.996Z,1.20
2023-03-13T09:38:37.007Z,1.27
2023-03-13T09:44:08.702Z,1.10
2023-03-13T09:49:34.722Z,1.20
2023-03-13T09:55:03.464Z,1.52
2023-03-13T10:00:16.318Z,0.80
2023-03-13T10:05:22.318Z,1.10
2023-03-13T10:10:43.207Z,0.80
2023-03-13T10:15:58.130Z,0.80
2023-03-13T10:21:11.240Z,1.08
2023-03-13T10:26:21.087Z,1.17
2023-03-13T10:31:32.950Z,1.52
2023-03-13T10:36:46.486Z,1.60
2023-03-13T10:41:56.457Z,1.10
2023-03-13T10:47:02.408Z,1.15
2023-03-13T10:52:05.287Z,1.48
2023-03-13T10:57:18.741Z,1.20
2023-03-13T11:02:39.633Z,0.88
2023-03-13T11:07:41.067Z,1.00
2023-03-13T11:12:47.713Z,0.80
2023-03-13T11:18:06.473Z,1.00
2023-03-13T11:23:28.535Z,1.13
2023-03-13T11:28:43.253Z,1.00
2023-03-13T11:33:59.612Z,2.13
2023-03-13T11:39:17.076Z,1.77
2023-03-13T11:49:56.724Z,1.27
2023-03-13T11:55:21.458Z,0.85
2023-03-13T12:00:33.351Z,0.70
2023-03-13T12:05:53.782Z,0.65
2023-03-13T12:11:09.256Z,0.60
2023-03-13T12:16:16.997Z,0.88
2023-03-13T12:21:37.935Z,1.00
2023-03-13T12:26:46.669Z,0.93
2023-03-13T12:31:59.906Z,0.75
2023-03-13T12:37:16.466Z,0.88
2023-03-13T12:42:39.958Z,1.13
2023-03-13T12:48:13.624Z,1.25
2023-03-13T12:53:51.353Z,0.80
2023-03-13T12:59:11.419Z,0.70
2023-03-13T13:04:17.699Z,2.53
2023-03-13T13:09:25.513Z,1.10
2023-03-13T13:14:26.858Z,1.13
2023-03-13T13:19:28.193Z,0.90
2023-03-13T13:24:50.813Z,1.15
2023-03-13T13:29:55.014Z,0.75
2023-03-13T13:35:16.845Z,1.50
2023-03-13T13:40:26.180Z,0.90
2023-03-13T13:45:35.580Z,0.85
2023-03-13T13:50:37.271Z,1.17
2023-03-13T13:55:38.589Z,1.20
2023-03-13T14:00:46.892Z,0.80
2023-03-13T14:05:53.275Z,0.80
2023-03-13T14:11:10.897Z,1.03
2023-03-13T14:16:26.401Z,1.75
2023-03-13T14:21:28.200Z,0.90
2023-03-13T14:26:30.248Z,1.17
2023-03-13T14:31:35.631Z,0.80
2023-03-13T14:36:51.641Z,1.13
2023-03-13T14:41:53.782Z,1.00
2023-03-13T14:46:58.103Z,1.20
2023-03-13T14:52:03.072Z,1.08
2023-03-13T14:57:17.778Z,0.95
2023-03-13T15:02:26.699Z,1.48
2023-03-13T15:07:52.339Z,1.60
2023-03-13T15:12:53.708Z,0.80
2023-03-13T15:17:55.172Z,0.68
2023-03-13T15:22:58.068Z,0.00
2023-03-13T15:27:59.408Z,0.00
2023-03-13T15:33:00.881Z,0.00
2023-03-13T15:38:02.950Z,0.00
2023-03-13T15:43:04.359Z,0.00
2023-03-13T15:48:15.524Z,0.00
2023-03-13T15:53:21.239Z,0.00
2023-03-13T15:58:22.872Z,0.00
2023-03-13T16:03:26.623Z,0.00
2023-03-13T16:08:36.999Z,0.00
2023-03-13T16:13:38.976Z,0.00
2023-03-13T16:18:40.861Z,0.00
2023-03-13T16:23:42.636Z,0.00
2023-03-13T16:28:44.995Z,0.00
2023-03-13T16:33:46.882Z,0.00
2023-03-13T16:38:48.835Z,0.00
2023-03-13T16:43:50.956Z,0.00
2023-03-13T16:48:53.943Z,0.00
2023-03-13T16:53:56.947Z,0.00
2023-03-13T16:58:58.488Z,0.00
2023-03-13T17:04:00.111Z,0.00
2023-03-13T17:09:02.147Z,0.00
2023-03-13T17:14:06.987Z,0.00
2023-03-13T17:19:13.517Z,0.00
2023-03-13T17:24:14.890Z,0.00
2023-03-13T17:29:18.798Z,0.00
2023-03-13T17:34:20.225Z,0.00
2023-03-13T17:39:24.402Z,0.00
2023-03-13T17:44:25.932Z,0.05
2023-03-13T17:49:29.456Z,0.00
2023-03-13T17:54:30.812Z,0.00
2023-03-13T17:59:32.192Z,0.00
2023-03-13T18:04:33.595Z,0.00
2023-03-13T18:09:35.074Z,0.05
2023-03-13T18:14:37.418Z,0.00
2023-03-13T18:19:38.822Z,0.00
2023-03-13T18:24:40.279Z,0.00
2023-03-13T18:29:42.605Z,0.00
2023-03-13T18:34:44.857Z,0.00
2023-03-13T18:39:46.276Z,0.00
2023-03-13T18:44:47.837Z,0.00
2023-03-13T18:55:34.617Z,0.00
2023-03-13T19:00:36.200Z,0.00
2023-03-13T19:05:37.622Z,0.00
2023-03-13T19:10:40.202Z,0.00
2023-03-13T19:15:41.606Z,0.00
2023-03-13T19:20:42.971Z,0.00
2023-03-13T19:25:44.316Z,0.00
2023-03-13T19:30:47.523Z,0.00
2023-03-13T19:35:48.904Z,0.00
2023-03-13T19:40:50.397Z,0.00
2023-03-13T19:45:51.771Z,0.00
2023-03-13T19:50:53.258Z,0.00
2023-03-13T19:55:54.604Z,0.00
2023-03-13T20:00:57.448Z,0.00
2023-03-13T20:11:24.531Z,0.00
2023-03-13T20:16:27.901Z,0.00
2023-03-13T20:21:38.815Z,0.00
2023-03-13T20:26:40.241Z,0.00
2023-03-13T20:31:41.610Z,0.00
2023-03-13T20:36:43.032Z,0.00
2023-03-13T20:41:44.354Z,0.10
2023-03-13T20:46:46.067Z,0.00
2023-03-13T20:51:47.472Z,0.00
2023-03-13T20:56:48.876Z,0.00
2023-03-13T21:01:50.268Z,0.00
2023-03-13T21:06:52.243Z,0.00
2023-03-13T21:11:53.591Z,0.00
2023-03-13T21:16:56.677Z,0.00
2023-03-13T21:21:58.238Z,0.00
2023-03-13T21:26:59.944Z,0.00
2023-03-13T21:32:01.461Z,0.00
2023-03-13T21:37:02.942Z,0.00
2023-03-13T21:42:04.349Z,0.00
2023-03-13T21:47:06.849Z,0.00
2023-03-13T21:52:08.331Z,0.00
2023-03-13T21:57:09.745Z,0.00
2023-03-13T22:02:12.991Z,0.00
2023-03-13T22:07:14.392Z,0.00
2023-03-13T22:12:17.456Z,0.00
2023-03-13T22:17:20.278Z,0.00
2023-03-13T22:22:22.289Z,0.00
2023-03-13T22:27:24.148Z,0.00
2023-03-13T22:32:25.873Z,0.00
2023-03-13T22:37:27.591Z,0.10
2023-03-13T22:42:29.168Z,0.00
2023-03-13T22:47:32.609Z,0.00
2023-03-13T22:52:34.064Z,0.00
2023-03-13T22:57:35.680Z,0.00
2023-03-13T23:02:37.107Z,0.00
2023-03-13T23:07:40.763Z,0.00
2023-03-13T23:12:42.457Z,0.00
2023-03-13T23:17:43.958Z,0.00
2023-03-13T23:22:47.552Z,0.00
2023-03-13T23:27:49.298Z,0.00
2023-03-13T23:32:50.673Z,0.00
2023-03-13T23:37:55.027Z,0.00
2023-03-13T23:42:56.473Z,0.00
2023-03-13T23:47:57.908Z,0.00
2023-03-13T23:52:59.306Z,0.10
2023-03-13T23:58:00.648Z,0.25
